sensor_id;sensor_type;location;lat;lon;timestamp;P1;durP1;ratioP1;P2;durP2;ratioP2
65581;SDS011;52231;40.090;18.348;2023-05-10T00:01:02;12.07;;;5.90;;
65581;SDS011;52231;40.090;18.348;2023-05-10T00:03:31;12.25;;;6.07;;
65581;SDS011;52231;40.090;18.348;2023-05-10T00:06:01;11.45;;;6.00;;
65581;SDS011;52231;40.090;18.348;2023-05-10T00:08:29;14.10;;;5.57;;
65581;SDS011;52231;40.090;18.348;2023-05-10T00:10:58;12.35;;;5.93;;
65581;SDS011;52231;40.090;18.348;2023-05-10T00:13:26;11.38;;;5.72;;
65581;SDS011;52231;40.090;18.348;2023-05-10T00:15:54;13.75;;;5.90;;
65581;SDS011;52231;40.090;18.348;2023-05-10T00:18:22;14.70;;;6.28;;
65581;SDS011;52231;40.090;18.348;2023-05-10T00:20:50;13.30;;;6.40;;
65581;SDS011;52231;40.090;18.348;2023-05-10T00:23:18;15.57;;;6.63;;
65581;SDS011;52231;40.090;18.348;2023-05-10T00:25:47;12.43;;;6.15;;
65581;SDS011;52231;40.090;18.348;2023-05-10T00:30:43;12.80;;;5.80;;
65581;SDS011;52231;40.090;18.348;2023-05-10T00:33:11;11.65;;;5.32;;
65581;SDS011;52231;40.090;18.348;2023-05-10T00:35:40;13.93;;;5.40;;
65581;SDS011;52231;40.090;18.348;2023-05-10T00:38:08;15.27;;;5.75;;
65581;SDS011;52231;40.090;18.348;2023-05-10T00:40:36;12.43;;;5.20;;
65581;SDS011;52231;40.090;18.348;2023-05-10T00:43:10;12.85;;;5.60;;
65581;SDS011;52231;40.090;18.348;2023-05-10T00:45:39;10.48;;;5.22;;
65581;SDS011;52231;40.090;18.348;2023-05-10T00:48:08;10.40;;;4.90;;
65581;SDS011;52231;40.090;18.348;2023-05-10T00:50:37;11.32;;;5.32;;
65581;SDS011;52231;40.090;18.348;2023-05-10T00:53:07;11.70;;;4.72;;
65581;SDS011;52231;40.090;18.348;2023-05-10T00:55:36;10.27;;;5.18;;
65581;SDS011;52231;40.090;18.348;2023-05-10T00:58:04;10.40;;;4.72;;
65581;SDS011;52231;40.090;18.348;2023-05-10T01:00:33;10.95;;;4.90;;
65581;SDS011;52231;40.090;18.348;2023-05-10T01:03:01;9.40;;;4.57;;
65581;SDS011;52231;40.090;18.348;2023-05-10T01:05:30;11.02;;;5.40;;
65581;SDS011;52231;40.090;18.348;2023-05-10T01:07:59;11.13;;;5.32;;
65581;SDS011;52231;40.090;18.348;2023-05-10T01:10:30;14.40;;;5.93;;
65581;SDS011;52231;40.090;18.348;2023-05-10T01:12:58;13.85;;;6.20;;
65581;SDS011;52231;40.090;18.348;2023-05-10T01:15:27;12.35;;;5.70;;
65581;SDS011;52231;40.090;18.348;2023-05-10T01:17:56;12.20;;;6.47;;
65581;SDS011;52231;40.090;18.348;2023-05-10T01:20:24;12.00;;;5.90;;
65581;SDS011;52231;40.090;18.348;2023-05-10T01:31:12;12.13;;;6.05;;
65581;SDS011;52231;40.090;18.348;2023-05-10T01:36:49;12.40;;;5.65;;
65581;SDS011;52231;40.090;18.348;2023-05-10T01:42:10;12.93;;;5.70;;
65581;SDS011;52231;40.090;18.348;2023-05-10T01:44:42;12.50;;;5.70;;
65581;SDS011;52231;40.090;18.348;2023-05-10T01:47:23;13.25;;;6.32;;
65581;SDS011;52231;40.090;18.348;2023-05-10T01:49:57;13.38;;;6.45;;
65581;SDS011;52231;40.090;18.348;2023-05-10T01:52:32;15.32;;;6.13;;
65581;SDS011;52231;40.090;18.348;2023-05-10T01:55:14;15.07;;;6.15;;
65581;SDS011;52231;40.090;18.348;2023-05-10T01:57:46;13.90;;;6.40;;
65581;SDS011;52231;40.090;18.348;2023-05-10T02:00:18;13.10;;;6.25;;
65581;SDS011;52231;40.090;18.348;2023-05-10T02:02:51;13.95;;;6.28;;
65581;SDS011;52231;40.090;18.348;2023-05-10T02:05:20;11.15;;;5.80;;
65581;SDS011;52231;40.090;18.348;2023-05-10T02:07:50;13.18;;;5.95;;
65581;SDS011;52231;40.090;18.348;2023-05-10T02:10:19;12.40;;;5.85;;
65581;SDS011;52231;40.090;18.348;2023-05-10T02:12:48;11.73;;;5.75;;
65581;SDS011;52231;40.090;18.348;2023-05-10T02:15:20;12.43;;;6.25;;
65581;SDS011;52231;40.090;18.348;2023-05-10T02:17:50;14.23;;;6.45;;
65581;SDS011;52231;40.090;18.348;2023-05-10T02:20:22;12.45;;;6.00;;
65581;SDS011;52231;40.090;18.348;2023-05-10T02:22:52;12.75;;;6.18;;
65581;SDS011;52231;40.090;18.348;2023-05-10T02:25:23;14.43;;;6.82;;
65581;SDS011;52231;40.090;18.348;2023-05-10T02:27:53;15.43;;;6.95;;
65581;SDS011;52231;40.090;18.348;2023-05-10T02:30:23;14.07;;;6.57;;
65581;SDS011;52231;40.090;18.348;2023-05-10T02:32:52;11.80;;;5.85;;
65581;SDS011;52231;40.090;18.348;2023-05-10T02:35:20;12.82;;;6.05;;
65581;SDS011;52231;40.090;18.348;2023-05-10T02:37:50;12.02;;;5.82;;
65581;SDS011;52231;40.090;18.348;2023-05-10T02:40:19;12.40;;;6.63;;
65581;SDS011;52231;40.090;18.348;2023-05-10T02:42:50;13.30;;;6.85;;
65581;SDS011;52231;40.090;18.348;2023-05-10T02:45:24;15.77;;;6.80;;
65581;SDS011;52231;40.090;18.348;2023-05-10T02:47:55;13.40;;;6.53;;
65581;SDS011;52231;40.090;18.348;2023-05-10T02:50:25;14.85;;;6.88;;
65581;SDS011;52231;40.090;18.348;2023-05-10T02:52:59;14.00;;;6.60;;
65581;SDS011;52231;40.090;18.348;2023-05-10T02:55:33;11.65;;;6.15;;
65581;SDS011;52231;40.090;18.348;2023-05-10T02:58:05;11.82;;;6.00;;
65581;SDS011;52231;40.090;18.348;2023-05-10T03:00:33;15.27;;;6.90;;
65581;SDS011;52231;40.090;18.348;2023-05-10T03:03:03;13.13;;;6.10;;
65581;SDS011;52231;40.090;18.348;2023-05-10T03:05:31;15.40;;;6.47;;
65581;SDS011;52231;40.090;18.348;2023-05-10T03:08:02;13.88;;;6.68;;
65581;SDS011;52231;40.090;18.348;2023-05-10T03:10:32;12.50;;;5.85;;
65581;SDS011;52231;40.090;18.348;2023-05-10T03:13:25;13.65;;;6.47;;
65581;SDS011;52231;40.090;18.348;2023-05-10T03:16:10;12.23;;;5.97;;
65581;SDS011;52231;40.090;18.348;2023-05-10T03:18:48;14.38;;;6.68;;
65581;SDS011;52231;40.090;18.348;2023-05-10T03:21:25;13.63;;;7.13;;
65581;SDS011;52231;40.090;18.348;2023-05-10T03:24:02;15.40;;;7.00;;
65581;SDS011;52231;40.090;18.348;2023-05-10T03:26:36;15.10;;;6.38;;
65581;SDS011;52231;40.090;18.348;2023-05-10T03:29:13;12.05;;;5.88;;
65581;SDS011;52231;40.090;18.348;2023-05-10T03:31:44;14.55;;;6.57;;
65581;SDS011;52231;40.090;18.348;2023-05-10T03:34:14;13.77;;;6.57;;
65581;SDS011;52231;40.090;18.348;2023-05-10T03:36:43;13.35;;;6.10;;
65581;SDS011;52231;40.090;18.348;2023-05-10T03:41:39;11.40;;;6.18;;
65581;SDS011;52231;40.090;18.348;2023-05-10T03:44:08;14.30;;;6.85;;
65581;SDS011;52231;40.090;18.348;2023-05-10T03:46:37;15.68;;;7.28;;
65581;SDS011;52231;40.090;18.348;2023-05-10T03:49:05;12.27;;;6.30;;
65581;SDS011;52231;40.090;18.348;2023-05-10T03:54:01;11.70;;;5.82;;
65581;SDS011;52231;40.090;18.348;2023-05-10T03:58:58;14.60;;;5.55;;
65581;SDS011;52231;40.090;18.348;2023-05-10T04:01:26;13.93;;;6.63;;
65581;SDS011;52231;40.090;18.348;2023-05-10T04:03:54;13.98;;;6.88;;
65581;SDS011;52231;40.090;18.348;2023-05-10T04:06:23;14.40;;;6.68;;
65581;SDS011;52231;40.090;18.348;2023-05-10T04:08:51;14.23;;;6.53;;
65581;SDS011;52231;40.090;18.348;2023-05-10T04:11:19;13.25;;;6.88;;
65581;SDS011;52231;40.090;18.348;2023-05-10T04:13:49;13.93;;;6.70;;
65581;SDS011;52231;40.090;18.348;2023-05-10T04:16:17;13.52;;;6.50;;
65581;SDS011;52231;40.090;18.348;2023-05-10T04:18:45;11.40;;;5.95;;
65581;SDS011;52231;40.090;18.348;2023-05-10T04:21:14;12.40;;;6.10;;
65581;SDS011;52231;40.090;18.348;2023-05-10T04:23:43;12.00;;;6.32;;
65581;SDS011;52231;40.090;18.348;2023-05-10T04:26:11;13.43;;;5.90;;
65581;SDS011;52231;40.090;18.348;2023-05-10T04:28:39;16.48;;;6.55;;
65581;SDS011;52231;40.090;18.348;2023-05-10T04:31:09;12.40;;;6.70;;
65581;SDS011;52231;40.090;18.348;2023-05-10T04:33:37;15.95;;;6.18;;
65581;SDS011;52231;40.090;18.348;2023-05-10T04:38:34;31.75;;;7.55;;
65581;SDS011;52231;40.090;18.348;2023-05-10T04:41:08;20.77;;;7.63;;
65581;SDS011;52231;40.090;18.348;2023-05-10T04:43:37;16.42;;;6.82;;
65581;SDS011;52231;40.090;18.348;2023-05-10T04:46:06;16.48;;;7.32;;
65581;SDS011;52231;40.090;18.348;2023-05-10T04:48:37;12.32;;;6.32;;
65581;SDS011;52231;40.090;18.348;2023-05-10T04:51:05;14.50;;;7.10;;
65581;SDS011;52231;40.090;18.348;2023-05-10T04:53:34;10.60;;;5.53;;
65581;SDS011;52231;40.090;18.348;2023-05-10T04:56:02;13.15;;;6.32;;
65581;SDS011;52231;40.090;18.348;2023-05-10T05:01:04;11.68;;;5.78;;
65581;SDS011;52231;40.090;18.348;2023-05-10T05:03:33;12.82;;;6.22;;
65581;SDS011;52231;40.090;18.348;2023-05-10T05:06:02;11.63;;;6.32;;
65581;SDS011;52231;40.090;18.348;2023-05-10T05:08:31;12.63;;;6.53;;
65581;SDS011;52231;40.090;18.348;2023-05-10T05:10:59;15.32;;;6.57;;
65581;SDS011;52231;40.090;18.348;2023-05-10T05:13:27;16.25;;;7.15;;
65581;SDS011;52231;40.090;18.348;2023-05-10T05:15:55;15.90;;;7.40;;
65581;SDS011;52231;40.090;18.348;2023-05-10T05:18:24;13.55;;;6.93;;
65581;SDS011;52231;40.090;18.348;2023-05-10T05:20:52;14.20;;;7.00;;
65581;SDS011;52231;40.090;18.348;2023-05-10T05:23:20;13.93;;;7.55;;
65581;SDS011;52231;40.090;18.348;2023-05-10T05:25:52;13.65;;;7.40;;
65581;SDS011;52231;40.090;18.348;2023-05-10T05:28:20;17.95;;;7.78;;
65581;SDS011;52231;40.090;18.348;2023-05-10T05:30:48;15.30;;;7.65;;
65581;SDS011;52231;40.090;18.348;2023-05-10T05:33:16;14.52;;;7.78;;
65581;SDS011;52231;40.090;18.348;2023-05-10T05:35:44;15.73;;;8.10;;
65581;SDS011;52231;40.090;18.348;2023-05-10T05:38:17;15.57;;;8.15;;
65581;SDS011;52231;40.090;18.348;2023-05-10T05:40:45;16.13;;;8.43;;
65581;SDS011;52231;40.090;18.348;2023-05-10T05:43:14;16.25;;;7.97;;
65581;SDS011;52231;40.090;18.348;2023-05-10T05:45:44;15.18;;;7.78;;
65581;SDS011;52231;40.090;18.348;2023-05-10T05:48:12;15.52;;;8.32;;
65581;SDS011;52231;40.090;18.348;2023-05-10T05:50:41;16.92;;;8.80;;
65581;SDS011;52231;40.090;18.348;2023-05-10T05:53:09;16.92;;;7.32;;
65581;SDS011;52231;40.090;18.348;2023-05-10T05:55:37;13.63;;;7.65;;
65581;SDS011;52231;40.090;18.348;2023-05-10T05:58:06;15.20;;;7.43;;
65581;SDS011;52231;40.090;18.348;2023-05-10T06:00:34;12.90;;;6.47;;
65581;SDS011;52231;40.090;18.348;2023-05-10T06:03:02;12.82;;;6.78;;
65581;SDS011;52231;40.090;18.348;2023-05-10T06:07:59;12.50;;;6.65;;
65581;SDS011;52231;40.090;18.348;2023-05-10T06:10:28;12.60;;;6.55;;
65581;SDS011;52231;40.090;18.348;2023-05-10T06:12:57;14.13;;;6.50;;
65581;SDS011;52231;40.090;18.348;2023-05-10T06:15:25;12.07;;;6.63;;
65581;SDS011;52231;40.090;18.348;2023-05-10T06:17:54;12.02;;;6.13;;
65581;SDS011;52231;40.090;18.348;2023-05-10T06:20:22;12.40;;;6.43;;
65581;SDS011;52231;40.090;18.348;2023-05-10T06:22:51;12.93;;;6.25;;
65581;SDS011;52231;40.090;18.348;2023-05-10T06:25:19;10.27;;;5.63;;
65581;SDS011;52231;40.090;18.348;2023-05-10T06:27:47;12.80;;;6.00;;
65581;SDS011;52231;40.090;18.348;2023-05-10T06:30:18;17.25;;;8.93;;
65581;SDS011;52231;40.090;18.348;2023-05-10T06:32:46;14.10;;;7.25;;
65581;SDS011;52231;40.090;18.348;2023-05-10T06:35:14;11.27;;;5.88;;
65581;SDS011;52231;40.090;18.348;2023-05-10T06:37:42;12.90;;;6.10;;
65581;SDS011;52231;40.090;18.348;2023-05-10T06:40:10;13.30;;;6.32;;
65581;SDS011;52231;40.090;18.348;2023-05-10T06:42:39;13.68;;;6.45;;
65581;SDS011;52231;40.090;18.348;2023-05-10T06:45:07;11.85;;;6.35;;
65581;SDS011;52231;40.090;18.348;2023-05-10T06:47:36;12.32;;;5.93;;
65581;SDS011;52231;40.090;18.348;2023-05-10T06:50:05;12.88;;;6.13;;
65581;SDS011;52231;40.090;18.348;2023-05-10T06:52:34;14.07;;;7.15;;
65581;SDS011;52231;40.090;18.348;2023-05-10T06:55:03;16.70;;;7.78;;
65581;SDS011;52231;40.090;18.348;2023-05-10T06:57:32;12.25;;;5.90;;
65581;SDS011;52231;40.090;18.348;2023-05-10T07:00:00;13.82;;;5.90;;
65581;SDS011;52231;40.090;18.348;2023-05-10T07:02:29;14.88;;;5.50;;
65581;SDS011;52231;40.090;18.348;2023-05-10T07:07:26;10.98;;;5.63;;
65581;SDS011;52231;40.090;18.348;2023-05-10T07:12:24;13.82;;;6.28;;
65581;SDS011;52231;40.090;18.348;2023-05-10T07:14:52;13.43;;;6.85;;
65581;SDS011;52231;40.090;18.348;2023-05-10T07:17:20;12.05;;;6.47;;
65581;SDS011;52231;40.090;18.348;2023-05-10T07:19:48;12.38;;;5.80;;
65581;SDS011;52231;40.090;18.348;2023-05-10T07:24:45;10.15;;;5.32;;
65581;SDS011;52231;40.090;18.348;2023-05-10T07:27:13;13.05;;;6.03;;
65581;SDS011;52231;40.090;18.348;2023-05-10T07:29:41;12.45;;;6.25;;
65581;SDS011;52231;40.090;18.348;2023-05-10T07:32:09;14.43;;;7.43;;
65581;SDS011;52231;40.090;18.348;2023-05-10T07:34:37;10.88;;;5.32;;
65581;SDS011;52231;40.090;18.348;2023-05-10T07:37:06;10.48;;;5.88;;
65581;SDS011;52231;40.090;18.348;2023-05-10T07:39:35;12.45;;;5.60;;
65581;SDS011;52231;40.090;18.348;2023-05-10T07:42:03;11.68;;;5.68;;
65581;SDS011;52231;40.090;18.348;2023-05-10T07:44:31;12.98;;;6.28;;
65581;SDS011;52231;40.090;18.348;2023-05-10T07:46:59;12.80;;;6.13;;
65581;SDS011;52231;40.090;18.348;2023-05-10T07:49:30;12.40;;;5.88;;
65581;SDS011;52231;40.090;18.348;2023-05-10T07:51:58;13.27;;;5.63;;
65581;SDS011;52231;40.090;18.348;2023-05-10T07:54:26;12.23;;;6.03;;
65581;SDS011;52231;40.090;18.348;2023-05-10T07:56:54;13.05;;;5.20;;
65581;SDS011;52231;40.090;18.348;2023-05-10T07:59:23;14.02;;;5.38;;
65581;SDS011;52231;40.090;18.348;2023-05-10T08:01:51;11.80;;;6.03;;
65581;SDS011;52231;40.090;18.348;2023-05-10T08:06:47;12.13;;;5.78;;
65581;SDS011;52231;40.090;18.348;2023-05-10T08:11:45;11.00;;;5.38;;
65581;SDS011;52231;40.090;18.348;2023-05-10T08:14:13;9.13;;;5.00;;
65581;SDS011;52231;40.090;18.348;2023-05-10T08:16:41;12.75;;;5.68;;
65581;SDS011;52231;40.090;18.348;2023-05-10T08:21:37;12.98;;;5.35;;
65581;SDS011;52231;40.090;18.348;2023-05-10T08:24:07;10.55;;;5.35;;
65581;SDS011;52231;40.090;18.348;2023-05-10T08:29:03;11.73;;;6.25;;
65581;SDS011;52231;40.090;18.348;2023-05-10T08:31:32;14.75;;;7.47;;
65581;SDS011;52231;40.090;18.348;2023-05-10T08:34:00;13.73;;;7.55;;
65581;SDS011;52231;40.090;18.348;2023-05-10T08:36:28;16.10;;;8.15;;
65581;SDS011;52231;40.090;18.348;2023-05-10T08:38:57;14.30;;;7.15;;
65581;SDS011;52231;40.090;18.348;2023-05-10T08:41:26;15.05;;;7.03;;
65581;SDS011;52231;40.090;18.348;2023-05-10T08:43:54;15.45;;;6.65;;
65581;SDS011;52231;40.090;18.348;2023-05-10T08:48:51;13.38;;;5.28;;
65581;SDS011;52231;40.090;18.348;2023-05-10T08:51:24;9.70;;;5.35;;
65581;SDS011;52231;40.090;18.348;2023-05-10T08:53:54;13.60;;;4.50;;
65581;SDS011;52231;40.090;18.348;2023-05-10T08:56:22;10.48;;;4.53;;
65581;SDS011;52231;40.090;18.348;2023-05-10T08:58:51;9.70;;;4.15;;
65581;SDS011;52231;40.090;18.348;2023-05-10T09:01:20;10.65;;;4.38;;
65581;SDS011;52231;40.090;18.348;2023-05-10T09:03:49;10.32;;;4.22;;
65581;SDS011;52231;40.090;18.348;2023-05-10T09:06:18;8.20;;;3.80;;
65581;SDS011;52231;40.090;18.348;2023-05-10T09:08:46;7.25;;;3.33;;
65581;SDS011;52231;40.090;18.348;2023-05-10T09:11:15;12.55;;;4.20;;
65581;SDS011;52231;40.090;18.348;2023-05-10T09:13:44;9.80;;;3.33;;
65581;SDS011;52231;40.090;18.348;2023-05-10T09:16:13;9.30;;;3.78;;
65581;SDS011;52231;40.090;18.348;2023-05-10T09:18:47;8.20;;;3.25;;
65581;SDS011;52231;40.090;18.348;2023-05-10T09:21:16;8.40;;;3.72;;
65581;SDS011;52231;40.090;18.348;2023-05-10T09:23:47;8.52;;;3.55;;
65581;SDS011;52231;40.090;18.348;2023-05-10T09:26:17;6.97;;;3.53;;
65581;SDS011;52231;40.090;18.348;2023-05-10T09:31:43;7.13;;;3.42;;
65581;SDS011;52231;40.090;18.348;2023-05-10T09:34:18;8.45;;;3.53;;
65581;SDS011;52231;40.090;18.348;2023-05-10T09:36:50;7.63;;;3.33;;
65581;SDS011;52231;40.090;18.348;2023-05-10T09:39:19;6.05;;;3.03;;
65581;SDS011;52231;40.090;18.348;2023-05-10T09:41:48;7.85;;;2.83;;
65581;SDS011;52231;40.090;18.348;2023-05-10T09:44:17;7.70;;;2.92;;
65581;SDS011;52231;40.090;18.348;2023-05-10T09:46:50;11.52;;;5.05;;
65581;SDS011;52231;40.090;18.348;2023-05-10T09:49:20;11.57;;;5.20;;
65581;SDS011;52231;40.090;18.348;2023-05-10T09:52:02;10.90;;;5.35;;
65581;SDS011;52231;40.090;18.348;2023-05-10T09:54:32;12.68;;;5.85;;
65581;SDS011;52231;40.090;18.348;2023-05-10T09:57:01;7.30;;;3.20;;
65581;SDS011;52231;40.090;18.348;2023-05-10T09:59:32;8.30;;;2.90;;
65581;SDS011;52231;40.090;18.348;2023-05-10T10:02:03;6.47;;;3.00;;
65581;SDS011;52231;40.090;18.348;2023-05-10T10:04:31;6.28;;;2.67;;
65581;SDS011;52231;40.090;18.348;2023-05-10T10:07:03;8.57;;;3.20;;
65581;SDS011;52231;40.090;18.348;2023-05-10T10:09:33;7.28;;;3.08;;
65581;SDS011;52231;40.090;18.348;2023-05-10T10:12:02;10.52;;;3.72;;
65581;SDS011;52231;40.090;18.348;2023-05-10T10:14:32;7.90;;;3.08;;
65581;SDS011;52231;40.090;18.348;2023-05-10T10:17:02;9.13;;;3.60;;
65581;SDS011;52231;40.090;18.348;2023-05-10T10:19:33;9.50;;;4.00;;
65581;SDS011;52231;40.090;18.348;2023-05-10T10:22:05;7.18;;;3.13;;
65581;SDS011;52231;40.090;18.348;2023-05-10T10:24:33;7.00;;;2.67;;
65581;SDS011;52231;40.090;18.348;2023-05-10T10:27:09;9.73;;;3.70;;
65581;SDS011;52231;40.090;18.348;2023-05-10T10:35:54;8.40;;;2.75;;
65581;SDS011;52231;40.090;18.348;2023-05-10T10:38:23;8.23;;;3.00;;
65581;SDS011;52231;40.090;18.348;2023-05-10T10:47:22;8.90;;;2.95;;
65581;SDS011;52231;40.090;18.348;2023-05-10T10:52:46;6.78;;;2.90;;
65581;SDS011;52231;40.090;18.348;2023-05-10T10:55:17;7.50;;;3.03;;
65581;SDS011;52231;40.090;18.348;2023-05-10T10:57:50;6.63;;;3.05;;
65581;SDS011;52231;40.090;18.348;2023-05-10T11:00:32;8.40;;;3.38;;
65581;SDS011;52231;40.090;18.348;2023-05-10T11:05:37;7.30;;;3.03;;
65581;SDS011;52231;40.090;18.348;2023-05-10T11:10:49;6.78;;;2.75;;
65581;SDS011;52231;40.090;18.348;2023-05-10T11:13:29;6.55;;;2.97;;
65581;SDS011;52231;40.090;18.348;2023-05-10T11:16:15;5.97;;;2.53;;
65581;SDS011;52231;40.090;18.348;2023-05-10T11:19:07;8.23;;;2.97;;
65581;SDS011;52231;40.090;18.348;2023-05-10T11:21:50;6.63;;;2.92;;
65581;SDS011;52231;40.090;18.348;2023-05-10T11:24:38;6.22;;;2.60;;
65581;SDS011;52231;40.090;18.348;2023-05-10T11:27:06;4.97;;;2.53;;
65581;SDS011;52231;40.090;18.348;2023-05-10T11:29:35;5.93;;;2.50;;
65581;SDS011;52231;40.090;18.348;2023-05-10T11:32:03;6.28;;;2.70;;
65581;SDS011;52231;40.090;18.348;2023-05-10T11:34:35;6.03;;;2.47;;
65581;SDS011;52231;40.090;18.348;2023-05-10T11:37:03;6.35;;;2.92;;
65581;SDS011;52231;40.090;18.348;2023-05-10T11:39:32;6.40;;;2.70;;
65581;SDS011;52231;40.090;18.348;2023-05-10T11:42:00;6.03;;;2.28;;
65581;SDS011;52231;40.090;18.348;2023-05-10T11:44:29;6.25;;;2.58;;
65581;SDS011;52231;40.090;18.348;2023-05-10T11:46:59;6.65;;;2.65;;
65581;SDS011;52231;40.090;18.348;2023-05-10T11:49:30;5.40;;;2.40;;
65581;SDS011;52231;40.090;18.348;2023-05-10T11:52:05;7.03;;;2.60;;
65581;SDS011;52231;40.090;18.348;2023-05-10T11:54:34;8.27;;;3.17;;
65581;SDS011;52231;40.090;18.348;2023-05-10T11:57:03;6.93;;;2.90;;
65581;SDS011;52231;40.090;18.348;2023-05-10T11:59:32;6.90;;;2.75;;
65581;SDS011;52231;40.090;18.348;2023-05-10T12:02:00;7.43;;;2.58;;
65581;SDS011;52231;40.090;18.348;2023-05-10T12:04:29;6.75;;;2.53;;
65581;SDS011;52231;40.090;18.348;2023-05-10T12:06:58;8.70;;;3.15;;
65581;SDS011;52231;40.090;18.348;2023-05-10T12:09:27;9.43;;;3.40;;
65581;SDS011;52231;40.090;18.348;2023-05-10T12:12:02;7.30;;;2.90;;
65581;SDS011;52231;40.090;18.348;2023-05-10T12:14:33;8.02;;;2.92;;
65581;SDS011;52231;40.090;18.348;2023-05-10T12:17:02;6.57;;;2.75;;
65581;SDS011;52231;40.090;18.348;2023-05-10T12:19:37;7.03;;;2.80;;
65581;SDS011;52231;40.090;18.348;2023-05-10T12:22:06;6.85;;;3.28;;
65581;SDS011;52231;40.090;18.348;2023-05-10T12:24:37;7.65;;;3.20;;
65581;SDS011;52231;40.090;18.348;2023-05-10T12:27:07;7.03;;;2.85;;
65581;SDS011;52231;40.090;18.348;2023-05-10T12:29:58;7.13;;;2.80;;
65581;SDS011;52231;40.090;18.348;2023-05-10T12:32:43;6.88;;;2.95;;
65581;SDS011;52231;40.090;18.348;2023-05-10T12:35:12;8.80;;;3.10;;
65581;SDS011;52231;40.090;18.348;2023-05-10T12:37:40;7.13;;;3.15;;
65581;SDS011;52231;40.090;18.348;2023-05-10T12:40:10;6.47;;;3.15;;
65581;SDS011;52231;40.090;18.348;2023-05-10T12:42:39;7.53;;;3.15;;
65581;SDS011;52231;40.090;18.348;2023-05-10T12:45:08;6.47;;;2.90;;
65581;SDS011;52231;40.090;18.348;2023-05-10T12:47:37;7.50;;;3.22;;
65581;SDS011;52231;40.090;18.348;2023-05-10T12:50:06;6.25;;;2.97;;
65581;SDS011;52231;40.090;18.348;2023-05-10T12:52:34;8.07;;;3.33;;
65581;SDS011;52231;40.090;18.348;2023-05-10T12:55:04;7.05;;;3.00;;
65581;SDS011;52231;40.090;18.348;2023-05-10T12:57:37;6.95;;;3.00;;
65581;SDS011;52231;40.090;18.348;2023-05-10T13:00:05;7.85;;;2.70;;
65581;SDS011;52231;40.090;18.348;2023-05-10T13:02:34;9.85;;;3.03;;
65581;SDS011;52231;40.090;18.348;2023-05-10T13:05:02;7.43;;;2.83;;
65581;SDS011;52231;40.090;18.348;2023-05-10T13:07:31;6.45;;;2.72;;
65581;SDS011;52231;40.090;18.348;2023-05-10T13:09:59;8.10;;;3.40;;
65581;SDS011;52231;40.090;18.348;2023-05-10T13:12:29;7.20;;;3.10;;
65581;SDS011;52231;40.090;18.348;2023-05-10T13:14:57;6.80;;;2.67;;
65581;SDS011;52231;40.090;18.348;2023-05-10T13:19:53;7.38;;;2.85;;
65581;SDS011;52231;40.090;18.348;2023-05-10T13:22:23;7.68;;;2.97;;
65581;SDS011;52231;40.090;18.348;2023-05-10T13:24:59;6.25;;;2.80;;
65581;SDS011;52231;40.090;18.348;2023-05-10T13:27:27;6.28;;;2.72;;
65581;SDS011;52231;40.090;18.348;2023-05-10T13:29:56;6.60;;;3.00;;
65581;SDS011;52231;40.090;18.348;2023-05-10T13:32:27;6.18;;;2.67;;
65581;SDS011;52231;40.090;18.348;2023-05-10T13:37:23;7.72;;;2.58;;
65581;SDS011;52231;40.090;18.348;2023-05-10T13:39:51;6.00;;;2.70;;
65581;SDS011;52231;40.090;18.348;2023-05-10T13:42:21;6.18;;;2.72;;
65581;SDS011;52231;40.090;18.348;2023-05-10T13:44:56;8.77;;;2.90;;
65581;SDS011;52231;40.090;18.348;2023-05-10T13:47:30;7.70;;;2.90;;
65581;SDS011;52231;40.090;18.348;2023-05-10T13:49:59;5.70;;;2.88;;
65581;SDS011;52231;40.090;18.348;2023-05-10T13:52:28;6.43;;;3.05;;
65581;SDS011;52231;40.090;18.348;2023-05-10T13:54:57;6.05;;;2.80;;
65581;SDS011;52231;40.090;18.348;2023-05-10T13:59:53;7.00;;;2.92;;
65581;SDS011;52231;40.090;18.348;2023-05-10T14:02:21;6.03;;;3.10;;
65581;SDS011;52231;40.090;18.348;2023-05-10T14:04:50;7.95;;;3.30;;
65581;SDS011;52231;40.090;18.348;2023-05-10T14:07:18;8.27;;;3.28;;
65581;SDS011;52231;40.090;18.348;2023-05-10T14:09:47;7.18;;;3.13;;
65581;SDS011;52231;40.090;18.348;2023-05-10T14:14:43;6.20;;;2.85;;
65581;SDS011;52231;40.090;18.348;2023-05-10T14:17:12;7.10;;;3.13;;
65581;SDS011;52231;40.090;18.348;2023-05-10T14:19:40;7.07;;;2.78;;
65581;SDS011;52231;40.090;18.348;2023-05-10T14:22:08;6.28;;;2.70;;
65581;SDS011;52231;40.090;18.348;2023-05-10T14:27:05;7.18;;;3.08;;
65581;SDS011;52231;40.090;18.348;2023-05-10T14:32:01;5.95;;;3.05;;
65581;SDS011;52231;40.090;18.348;2023-05-10T14:34:30;7.03;;;2.85;;
65581;SDS011;52231;40.090;18.348;2023-05-10T14:36:58;6.90;;;3.17;;
65581;SDS011;52231;40.090;18.348;2023-05-10T14:39:26;7.43;;;3.00;;
65581;SDS011;52231;40.090;18.348;2023-05-10T14:41:56;8.00;;;3.25;;
65581;SDS011;52231;40.090;18.348;2023-05-10T14:44:25;8.10;;;3.40;;
65581;SDS011;52231;40.090;18.348;2023-05-10T14:46:56;7.78;;;3.67;;
65581;SDS011;52231;40.090;18.348;2023-05-10T14:51:53;7.00;;;3.20;;
65581;SDS011;52231;40.090;18.348;2023-05-10T14:54:21;7.75;;;3.13;;
65581;SDS011;52231;40.090;18.348;2023-05-10T14:59:17;6.75;;;3.22;;
65581;SDS011;52231;40.090;18.348;2023-05-10T15:01:45;6.20;;;2.90;;
65581;SDS011;52231;40.090;18.348;2023-05-10T15:04:13;10.02;;;3.00;;
65581;SDS011;52231;40.090;18.348;2023-05-10T15:06:43;8.13;;;3.22;;
65581;SDS011;52231;40.090;18.348;2023-05-10T15:09:12;6.85;;;3.38;;
65581;SDS011;52231;40.090;18.348;2023-05-10T15:11:40;7.43;;;3.45;;
65581;SDS011;52231;40.090;18.348;2023-05-10T15:14:08;7.93;;;3.50;;
65581;SDS011;52231;40.090;18.348;2023-05-10T15:16:36;7.95;;;3.38;;
65581;SDS011;52231;40.090;18.348;2023-05-10T15:21:32;8.00;;;3.75;;
65581;SDS011;52231;40.090;18.348;2023-05-10T15:24:06;7.03;;;3.38;;
65581;SDS011;52231;40.090;18.348;2023-05-10T15:29:02;9.68;;;3.75;;
65581;SDS011;52231;40.090;18.348;2023-05-10T15:31:30;8.60;;;3.90;;
65581;SDS011;52231;40.090;18.348;2023-05-10T15:33:59;8.77;;;3.47;;
65581;SDS011;52231;40.090;18.348;2023-05-10T15:36:27;9.80;;;4.18;;
65581;SDS011;52231;40.090;18.348;2023-05-10T15:38:55;8.40;;;3.65;;
65581;SDS011;52231;40.090;18.348;2023-05-10T15:41:23;9.63;;;3.97;;
65581;SDS011;52231;40.090;18.348;2023-05-10T15:43:52;9.73;;;3.75;;
65581;SDS011;52231;40.090;18.348;2023-05-10T15:46:20;10.63;;;3.35;;
65581;SDS011;52231;40.090;18.348;2023-05-10T15:48:49;8.63;;;3.55;;
65581;SDS011;52231;40.090;18.348;2023-05-10T15:51:17;7.78;;;3.30;;
65581;SDS011;52231;40.090;18.348;2023-05-10T15:53:46;8.70;;;3.75;;
65581;SDS011;52231;40.090;18.348;2023-05-10T15:56:22;6.95;;;3.30;;
65581;SDS011;52231;40.090;18.348;2023-05-10T15:58:51;8.65;;;3.70;;
65581;SDS011;52231;40.090;18.348;2023-05-10T16:01:19;9.57;;;3.80;;
65581;SDS011;52231;40.090;18.348;2023-05-10T16:03:47;8.05;;;3.90;;
65581;SDS011;52231;40.090;18.348;2023-05-10T16:06:15;8.50;;;3.60;;
65581;SDS011;52231;40.090;18.348;2023-05-10T16:08:44;9.43;;;3.58;;
65581;SDS011;52231;40.090;18.348;2023-05-10T16:11:12;9.77;;;3.60;;
65581;SDS011;52231;40.090;18.348;2023-05-10T16:13:40;7.07;;;3.38;;
65581;SDS011;52231;40.090;18.348;2023-05-10T16:16:09;7.18;;;3.35;;
65581;SDS011;52231;40.090;18.348;2023-05-10T16:18:37;9.95;;;3.70;;
65581;SDS011;52231;40.090;18.348;2023-05-10T16:23:34;7.90;;;3.30;;